M/V Alton St. Amant — WDE7604 — position and weather

sailwx.info

Track history (hours):
 
Tides and Currents Weather Stations Pressure Air Temp Water Temp Dewpoint Dewpoint Depression Visibility Wind Speed Wind Dir Waves Ship Positions

M/V Alton St. Amant

Owner: The Barge Investment Group Five, L.L.C., Harahan, LA. More information available from US FCC via Universal Licensing System and Coast Guard Vessel Documentation Center.

Last reported at 2016-Jul-10 04:28 UTC. Time now 2016-Jul-24 10:46 UTC.
Position N 29°57' W 090°10'.
Warning: this ship's position is 14 days out of date.

Length 25 m; draft 2.7 m.

Type: Towing. MMSI: 367395270.

Date/timePositionNaut miles runAvg speedWind from/ knotsBaromVisibWave heightAir tempDewpointWater temp
2016-Jul-10 04:28N 29°57' W 090°10'4 4.1
2016-Jul-10 03:33N 29°55' W 090°07'5 5.0
2016-Jul-10 02:33N 29°57' W 090°02'4 3.5
2016-Jul-10 01:33N 29°55' W 089°58'1 0.8
2016-Jul-10 00:33N 29°54' W 089°59'0 0.5
2016-Jul-09 23:33N 29°54' W 089°59'4 4.2
2016-Jul-09 22:33N 29°51' W 090°02'3 3.5
2016-Jul-09 21:33N 29°48' W 090°04'28 4.0
2016-Jul-09 14:33N 29°34' W 090°32'4 4.4
2016-Jul-09 13:33N 29°35' W 090°37'5 4.7
2016-Jul-09 12:34N 29°37' W 090°42'4 3.8
2016-Jul-09 11:33N 29°34' W 090°44'64 4.0
2016-Jul-08 19:31N 29°51' W 091°55'2 2.3
2016-Jul-08 18:33N 29°50' W 091°58'3 3.2
2016-Jul-08 17:33N 29°49' W 092°01'5 5.1
2016-Jul-08 16:33N 29°47' W 092°07'4 4.4
2016-Jul-08 15:33N 29°47' W 092°12'3 3.0
2016-Jul-08 14:33N 29°48' W 092°15'4 4.3
2016-Jul-08 13:33N 29°50' W 092°19'5 3.9
2016-Jul-08 12:24N 29°53' W 092°24'29 4.7
2016-Jul-08 06:15N 29°56' W 092°57'8 4.5
2016-Jul-08 04:33N 29°56' W 093°06'4 4.2
2016-Jul-08 03:33N 29°57' W 093°11'4 4.5
2016-Jul-08 02:33N 30°01' W 093°14'4 4.2
2016-Jul-08 01:33N 30°04' W 093°16'3 2.7
2016-Jul-08 00:33N 30°06' W 093°19'4 4.2
2016-Jul-07 23:33N 30°04' W 093°23'4 4.1
2016-Jul-07 22:33N 30°04' W 093°28'5 5.3
2016-Jul-07 21:33N 30°04' W 093°34'6 5.5
2016-Jul-07 20:34N 30°04' W 093°40'75 2.7
2016-Jul-06 16:33N 29°37' W 095°02'0 0.0
2016-Jul-06 00:33N 29°37' W 095°01'0 0.0
2016-Jul-05 23:33N 29°37' W 095°01'0 0.0
2016-Jul-05 22:33N 29°37' W 095°01'0 0.0
2016-Jul-05 21:33N 29°37' W 095°01'0 0.0
2016-Jul-05 20:33N 29°37' W 095°01'0 0.0
2016-Jul-05 19:33N 29°37' W 095°01'0 0.0
2016-Jul-05 18:33N 29°37' W 095°01'0 0.0
2016-Jul-05 17:33N 29°37' W 095°01'0 0.0
2016-Jul-05 16:33N 29°37' W 095°01'0 0.0
2016-Jul-05 15:30N 29°37' W 095°01'0 0.0
2016-Jul-05 14:33N 29°37' W 095°01'0 0.0
2016-Jul-05 13:33N 29°37' W 095°01'0 0.0
2016-Jul-05 12:33N 29°37' W 095°01'0 0.0
2016-Jul-05 11:33N 29°37' W 095°01'0 0.0
2016-Jul-05 10:33N 29°37' W 095°01'0 0.0
2016-Jul-05 09:33N 29°37' W 095°01'0 0.0
2016-Jul-05 08:33N 29°37' W 095°01'0 0.0
2016-Jul-05 07:33N 29°37' W 095°01'0 0.0
2016-Jul-05 06:33N 29°37' W 095°01'0 0.0
2016-Jul-05 04:33N 29°37' W 095°01'0 0.2
2016-Jul-05 03:33N 29°37' W 095°01'4 3.5
2016-Jul-05 02:32N 29°39' W 094°58'10 0.8
2016-Jul-04 14:32N 29°47' W 095°05'0 0.0
2016-Jul-04 12:27N 29°47' W 095°05'0 0.0
2016-Jul-04 11:33N 29°47' W 095°05'0 0.0
2016-Jul-04 10:33N 29°47' W 095°05'0 0.0
2016-Jul-04 09:33N 29°47' W 095°05'0 0.0
2016-Jul-04 08:33N 29°47' W 095°05'0 0.0
2016-Jul-04 07:33N 29°47' W 095°05'0 0.0
2016-Jul-04 06:32N 29°47' W 095°05'0 0.0
2016-Jul-04 05:32N 29°47' W 095°05'0 0.0
2016-Jul-04 04:28N 29°47' W 095°05'0 0.0
2016-Jul-04 03:32N 29°47' W 095°05'0 0.0
2016-Jul-04 02:27N 29°47' W 095°05'0 0.0
2016-Jul-04 01:32N 29°47' W 095°05'0 0.0
2016-Jul-04 00:17N 29°47' W 095°05'0 0.0
2016-Jul-03 23:30N 29°47' W 095°05'0 0.0
2016-Jul-03 22:32N 29°47' W 095°05'0 0.0
2016-Jul-03 21:21N 29°47' W 095°05'0 0.0
2016-Jul-03 20:29N 29°47' W 095°05'0 0.0
2016-Jul-03 19:31N 29°47' W 095°05'0 0.0
2016-Jul-03 18:22N 29°47' W 095°05'0 0.0
2016-Jul-03 17:22N 29°47' W 095°05'0 0.0
2016-Jul-03 16:15N 29°47' W 095°05'0 0.0
2016-Jul-03 15:31N 29°47' W 095°05'0 0.0
2016-Jul-03 14:31N 29°47' W 095°05'0 0.0
2016-Jul-03 06:13N 29°47' W 095°05'0 0.0
2016-Jul-03 05:33N 29°47' W 095°05'0 0.0
2016-Jul-03 04:33N 29°47' W 095°05'0 0.0
2016-Jul-03 03:33N 29°47' W 095°05'0 0.0
2016-Jul-03 02:29N 29°47' W 095°05'0 0.0
2016-Jul-03 01:32N 29°47' W 095°05'0 0.0
2016-Jul-03 00:33N 29°47' W 095°05'0 0.0
2016-Jul-02 23:32N 29°47' W 095°05'0 0.0
2016-Jul-02 22:27N 29°47' W 095°05'0 0.0
2016-Jul-02 21:32N 29°47' W 095°05'0 0.0
2016-Jul-02 20:33N 29°47' W 095°05'0 0.0
2016-Jul-02 19:15N 29°47' W 095°05'0 0.0
2016-Jul-02 18:23N 29°47' W 095°05'0 0.0
2016-Jul-02 17:22N 29°47' W 095°05'0 0.0
2016-Jul-02 16:27N 29°47' W 095°05'0 0.0
2016-Jul-02 15:29N 29°47' W 095°05'0 0.0
2016-Jul-02 14:29N 29°47' W 095°05'0 0.0
2016-Jul-02 13:32N 29°47' W 095°05'0 0.0
2016-Jul-02 08:21N 29°47' W 095°05'0 0.0
2016-Jul-02 07:33N 29°47' W 095°05'0 0.0
2016-Jul-02 06:33N 29°47' W 095°05'0 0.0
2016-Jul-02 04:32N 29°47' W 095°05'0 0.0
2016-Jul-02 03:33N 29°47' W 095°05'0 0.0
2016-Jul-02 02:33N 29°47' W 095°05'0 0.0
2016-Jul-02 01:33N 29°47' W 095°05'0 0.0
2016-Jul-02 00:33N 29°47' W 095°05'0 0.0
2016-Jul-01 23:33N 29°47' W 095°05'0 0.2
2016-Jul-01 22:33N 29°47' W 095°05'1 0.1
2016-Jul-01 17:29N 29°47' W 095°05'1 0.9
2016-Jul-01 16:33N 29°47' W 095°05'0 0.0
2016-Jul-01 15:33N 29°47' W 095°05'0 0.0
2016-Jul-01 14:33N 29°47' W 095°05'0 0.0
2016-Jul-01 13:33N 29°47' W 095°05'0 0.0
2016-Jul-01 11:33N 29°47' W 095°05'0 0.0
2016-Jul-01 10:33N 29°47' W 095°05'0 0.0
2016-Jul-01 09:33N 29°47' W 095°05'0 0.0
2016-Jul-01 08:33N 29°47' W 095°05'0 0.0
2016-Jul-01 07:31N 29°47' W 095°05'0 0.0
2016-Jul-01 06:33N 29°47' W 095°05'0 0.0
2016-Jul-01 05:32N 29°47' W 095°05'0 0.0
2016-Jul-01 04:33N 29°47' W 095°05'0 0.0
2016-Jul-01 03:33N 29°47' W 095°05'0 0.0
2016-Jul-01 02:33N 29°47' W 095°05'0 0.0
2016-Jul-01 01:27N 29°47' W 095°05'0 0.0
2016-Jul-01 00:33N 29°47' W 095°05'0 0.0
2016-Jun-30 18:27N 29°47' W 095°05'0 0.0
2016-Jun-30 17:06N 29°47' W 095°05'0 0.0
2016-Jun-30 16:31N 29°47' W 095°05'0 0.0
2016-Jun-30 12:33N 29°47' W 095°05'0 0.0
2016-Jun-30 11:33N 29°47' W 095°05'0 0.0
2016-Jun-30 10:25N 29°47' W 095°05'0 0.0
2016-Jun-30 09:30N 29°47' W 095°05'0 0.0
2016-Jun-30 08:33N 29°47' W 095°05'0 0.0
2016-Jun-30 07:33N 29°47' W 095°05'0 0.0
2016-Jun-30 06:33N 29°47' W 095°05'0 0.0
2016-Jun-30 05:30N 29°47' W 095°05'0 0.0
2016-Jun-30 04:33N 29°47' W 095°05'  
Track history (hours):
 
Tides and Currents Weather Stations Pressure Air Temp Water Temp Dewpoint Dewpoint Depression Visibility Wind Speed Wind Dir Waves Ship Positions

M/V Alton St. Amant

Owner: The Barge Investment Group Five, L.L.C., Harahan, LA. More information available from US FCC via Universal Licensing System and Coast Guard Vessel Documentation Center.

Last reported at 2016-Jul-10 04:28 UTC. Time now 2016-Jul-24 10:46 UTC.
Position N 29°57' W 090°10'.
Warning: this ship's position is 14 days out of date.

Length 25 m; draft 2.7 m.

Type: Towing. MMSI: 367395270.

Date/timePositionNaut miles runAvg speedWind from/ knotsBaromVisibWave heightAir tempDewpointWater temp
2016-Jul-10 04:28N 29°57' W 090°10'4 4.1
2016-Jul-10 03:33N 29°55' W 090°07'5 5.0
2016-Jul-10 02:33N 29°57' W 090°02'4 3.5
2016-Jul-10 01:33N 29°55' W 089°58'1 0.8
2016-Jul-10 00:33N 29°54' W 089°59'0 0.5
2016-Jul-09 23:33N 29°54' W 089°59'4 4.2
2016-Jul-09 22:33N 29°51' W 090°02'3 3.5
2016-Jul-09 21:33N 29°48' W 090°04'28 4.0
2016-Jul-09 14:33N 29°34' W 090°32'4 4.4
2016-Jul-09 13:33N 29°35' W 090°37'5 4.7
2016-Jul-09 12:34N 29°37' W 090°42'4 3.8
2016-Jul-09 11:33N 29°34' W 090°44'64 4.0
2016-Jul-08 19:31N 29°51' W 091°55'2 2.3
2016-Jul-08 18:33N 29°50' W 091°58'3 3.2
2016-Jul-08 17:33N 29°49' W 092°01'5 5.1
2016-Jul-08 16:33N 29°47' W 092°07'4 4.4
2016-Jul-08 15:33N 29°47' W 092°12'3 3.0
2016-Jul-08 14:33N 29°48' W 092°15'4 4.3
2016-Jul-08 13:33N 29°50' W 092°19'5 3.9
2016-Jul-08 12:24N 29°53' W 092°24'29 4.7
2016-Jul-08 06:15N 29°56' W 092°57'8 4.5
2016-Jul-08 04:33N 29°56' W 093°06'4 4.2
2016-Jul-08 03:33N 29°57' W 093°11'4 4.5
2016-Jul-08 02:33N 30°01' W 093°14'4 4.2
2016-Jul-08 01:33N 30°04' W 093°16'3 2.7
2016-Jul-08 00:33N 30°06' W 093°19'4 4.2
2016-Jul-07 23:33N 30°04' W 093°23'4 4.1
2016-Jul-07 22:33N 30°04' W 093°28'5 5.3
2016-Jul-07 21:33N 30°04' W 093°34'6 5.5
2016-Jul-07 20:34N 30°04' W 093°40'75 2.7
2016-Jul-06 16:33N 29°37' W 095°02'0 0.0
2016-Jul-06 00:33N 29°37' W 095°01'0 0.0
2016-Jul-05 23:33N 29°37' W 095°01'0 0.0
2016-Jul-05 22:33N 29°37' W 095°01'0 0.0
2016-Jul-05 21:33N 29°37' W 095°01'0 0.0
2016-Jul-05 20:33N 29°37' W 095°01'0 0.0
2016-Jul-05 19:33N 29°37' W 095°01'0 0.0
2016-Jul-05 18:33N 29°37' W 095°01'0 0.0
2016-Jul-05 17:33N 29°37' W 095°01'0 0.0
2016-Jul-05 16:33N 29°37' W 095°01'0 0.0
2016-Jul-05 15:30N 29°37' W 095°01'0 0.0
2016-Jul-05 14:33N 29°37' W 095°01'0 0.0
2016-Jul-05 13:33N 29°37' W 095°01'0 0.0
2016-Jul-05 12:33N 29°37' W 095°01'0 0.0
2016-Jul-05 11:33N 29°37' W 095°01'0 0.0
2016-Jul-05 10:33N 29°37' W 095°01'0 0.0
2016-Jul-05 09:33N 29°37' W 095°01'0 0.0
2016-Jul-05 08:33N 29°37' W 095°01'0 0.0
2016-Jul-05 07:33N 29°37' W 095°01'0 0.0
2016-Jul-05 06:33N 29°37' W 095°01'0 0.0
2016-Jul-05 04:33N 29°37' W 095°01'0 0.2
2016-Jul-05 03:33N 29°37' W 095°01'4 3.5
2016-Jul-05 02:32N 29°39' W 094°58'10 0.8
2016-Jul-04 14:32N 29°47' W 095°05'0 0.0
2016-Jul-04 12:27N 29°47' W 095°05'0 0.0
2016-Jul-04 11:33N 29°47' W 095°05'0 0.0
2016-Jul-04 10:33N 29°47' W 095°05'0 0.0
2016-Jul-04 09:33N 29°47' W 095°05'0 0.0
2016-Jul-04 08:33N 29°47' W 095°05'0 0.0
2016-Jul-04 07:33N 29°47' W 095°05'0 0.0
2016-Jul-04 06:32N 29°47' W 095°05'0 0.0
2016-Jul-04 05:32N 29°47' W 095°05'0 0.0
2016-Jul-04 04:28N 29°47' W 095°05'0 0.0
2016-Jul-04 03:32N 29°47' W 095°05'0 0.0
2016-Jul-04 02:27N 29°47' W 095°05'0 0.0
2016-Jul-04 01:32N 29°47' W 095°05'0 0.0
2016-Jul-04 00:17N 29°47' W 095°05'0 0.0
2016-Jul-03 23:30N 29°47' W 095°05'0 0.0
2016-Jul-03 22:32N 29°47' W 095°05'0 0.0
2016-Jul-03 21:21N 29°47' W 095°05'0 0.0
2016-Jul-03 20:29N 29°47' W 095°05'0 0.0
2016-Jul-03 19:31N 29°47' W 095°05'0 0.0
2016-Jul-03 18:22N 29°47' W 095°05'0 0.0
2016-Jul-03 17:22N 29°47' W 095°05'0 0.0
2016-Jul-03 16:15N 29°47' W 095°05'0 0.0
2016-Jul-03 15:31N 29°47' W 095°05'0 0.0
2016-Jul-03 14:31N 29°47' W 095°05'0 0.0
2016-Jul-03 06:13N 29°47' W 095°05'0 0.0
2016-Jul-03 05:33N 29°47' W 095°05'0 0.0
2016-Jul-03 04:33N 29°47' W 095°05'0 0.0
2016-Jul-03 03:33N 29°47' W 095°05'0 0.0
2016-Jul-03 02:29N 29°47' W 095°05'0 0.0
2016-Jul-03 01:32N 29°47' W 095°05'0 0.0
2016-Jul-03 00:33N 29°47' W 095°05'0 0.0
2016-Jul-02 23:32N 29°47' W 095°05'0 0.0
2016-Jul-02 22:27N 29°47' W 095°05'0 0.0
2016-Jul-02 21:32N 29°47' W 095°05'0 0.0
2016-Jul-02 20:33N 29°47' W 095°05'0 0.0
2016-Jul-02 19:15N 29°47' W 095°05'0 0.0
2016-Jul-02 18:23N 29°47' W 095°05'0 0.0
2016-Jul-02 17:22N 29°47' W 095°05'0 0.0
2016-Jul-02 16:27N 29°47' W 095°05'0 0.0
2016-Jul-02 15:29N 29°47' W 095°05'0 0.0
2016-Jul-02 14:29N 29°47' W 095°05'0 0.0
2016-Jul-02 13:32N 29°47' W 095°05'0 0.0
2016-Jul-02 08:21N 29°47' W 095°05'0 0.0
2016-Jul-02 07:33N 29°47' W 095°05'0 0.0
2016-Jul-02 06:33N 29°47' W 095°05'0 0.0
2016-Jul-02 04:32N 29°47' W 095°05'0 0.0
2016-Jul-02 03:33N 29°47' W 095°05'0 0.0
2016-Jul-02 02:33N 29°47' W 095°05'0 0.0
2016-Jul-02 01:33N 29°47' W 095°05'0 0.0
2016-Jul-02 00:33N 29°47' W 095°05'0 0.0
2016-Jul-01 23:33N 29°47' W 095°05'0 0.2
2016-Jul-01 22:33N 29°47' W 095°05'1 0.1
2016-Jul-01 17:29N 29°47' W 095°05'1 0.9
2016-Jul-01 16:33N 29°47' W 095°05'0 0.0
2016-Jul-01 15:33N 29°47' W 095°05'0 0.0
2016-Jul-01 14:33N 29°47' W 095°05'0 0.0
2016-Jul-01 13:33N 29°47' W 095°05'0 0.0
2016-Jul-01 11:33N 29°47' W 095°05'0 0.0
2016-Jul-01 10:33N 29°47' W 095°05'0 0.0
2016-Jul-01 09:33N 29°47' W 095°05'0 0.0
2016-Jul-01 08:33N 29°47' W 095°05'0 0.0
2016-Jul-01 07:31N 29°47' W 095°05'0 0.0
2016-Jul-01 06:33N 29°47' W 095°05'0 0.0
2016-Jul-01 05:32N 29°47' W 095°05'0 0.0
2016-Jul-01 04:33N 29°47' W 095°05'0 0.0
2016-Jul-01 03:33N 29°47' W 095°05'0 0.0
2016-Jul-01 02:33N 29°47' W 095°05'0 0.0
2016-Jul-01 01:27N 29°47' W 095°05'0 0.0
2016-Jul-01 00:33N 29°47' W 095°05'0 0.0
2016-Jun-30 18:27N 29°47' W 095°05'0 0.0
2016-Jun-30 17:06N 29°47' W 095°05'0 0.0
2016-Jun-30 16:31N 29°47' W 095°05'0 0.0
2016-Jun-30 12:33N 29°47' W 095°05'0 0.0
2016-Jun-30 11:33N 29°47' W 095°05'0 0.0
2016-Jun-30 10:25N 29°47' W 095°05'0 0.0
2016-Jun-30 09:30N 29°47' W 095°05'0 0.0
2016-Jun-30 08:33N 29°47' W 095°05'0 0.0
2016-Jun-30 07:33N 29°47' W 095°05'0 0.0
2016-Jun-30 06:33N 29°47' W 095°05'0 0.0
2016-Jun-30 05:30N 29°47' W 095°05'0 0.0
2016-Jun-30 04:33N 29°47' W 095°05'  

Dump ship's entire track history